createdAt,value
2022-11-18T00:03:23.392Z,1003.6
2022-11-18T00:08:49.110Z,1003.6
2022-11-18T00:14:27.307Z,1003.8
2022-11-18T00:19:54.540Z,1003.8
2022-11-18T00:25:22.603Z,1003.8
2022-11-18T00:30:55.880Z,1003.9
2022-11-18T00:36:44.193Z,1003.8
2022-11-18T00:42:00.891Z,1003.8
2022-11-18T00:47:43.649Z,1003.9
2022-11-18T00:53:13.064Z,1004
2022-11-18T00:58:34.931Z,1003.9
2022-11-18T01:04:11.035Z,1004.2
2022-11-18T01:10:06.287Z,1004.3
2022-11-18T01:15:31.857Z,1004.4
2022-11-18T01:20:59.823Z,1004.5
2022-11-18T01:26:37.527Z,1004.5
2022-11-18T01:32:23.770Z,1004.4
2022-11-18T01:37:43.215Z,1004.4
2022-11-18T01:43:23.451Z,1004.4
2022-11-18T01:48:57.895Z,1004.3
2022-11-18T01:54:05.440Z,1004.3
2022-11-18T01:59:44.329Z,1004.3
2022-11-18T02:05:19.847Z,1004.4
2022-11-18T02:10:59.094Z,1004.5
2022-11-18T02:16:27.367Z,1004.6
2022-11-18T02:22:03.726Z,1004.4
2022-11-18T02:27:39.090Z,1004.4
2022-11-18T02:33:03.550Z,1004.4
2022-11-18T02:38:55.558Z,1004.5
2022-11-18T02:44:26.212Z,1004.8
2022-11-18T02:49:53.005Z,1004.9
2022-11-18T02:55:24.195Z,1004.9
2022-11-18T03:01:01.705Z,1004.9
2022-11-18T03:06:27.160Z,1005
2022-11-18T03:12:06.022Z,1005.2
2022-11-18T03:17:33.645Z,1005.2
2022-11-18T03:23:15.890Z,1005.2
2022-11-18T03:28:54.177Z,1005.4
2022-11-18T03:34:01.211Z,1005.5
2022-11-18T03:39:47.283Z,1005.5
2022-11-18T03:45:15.211Z,1005.7
2022-11-18T03:50:40.095Z,1005.7
2022-11-18T03:56:27.255Z,1005.7
2022-11-18T04:01:53.474Z,1005.7
2022-11-18T04:07:21.861Z,1005.9
2022-11-18T04:12:50.048Z,1006
2022-11-18T04:18:48.771Z,1006.2
2022-11-18T04:24:10.811Z,1006.3
2022-11-18T04:29:54.345Z,1006.5
2022-11-18T04:35:29.542Z,1006.7
2022-11-18T04:40:55.977Z,1006.7
2022-11-18T04:46:13.377Z,1006.9
2022-11-18T04:51:49.155Z,1006.9
2022-11-18T04:57:40.053Z,1007
2022-11-18T05:02:52.226Z,1007
2022-11-18T05:08:45.086Z,1007.1
2022-11-18T05:13:57.443Z,1007.2
2022-11-18T05:19:38.543Z,1007.4
2022-11-18T05:25:09.056Z,1007.5
2022-11-18T05:30:48.961Z,1007.5
2022-11-18T05:36:13.594Z,1007.6
2022-11-18T05:41:32.177Z,1007.7
2022-11-18T05:47:11.510Z,1007.8
2022-11-18T05:58:16.656Z,1008.1
2022-11-18T06:04:06.925Z,1008.2
2022-11-18T06:09:28.712Z,1008.3
2022-11-18T06:15:15.570Z,1008.4
2022-11-18T06:20:34.516Z,1008.5
2022-11-18T06:25:58.678Z,1008.6
2022-11-18T06:31:52.625Z,1008.6
2022-11-18T06:37:26.505Z,1008.6
2022-11-18T06:42:41.587Z,1008.7
2022-11-18T06:48:28.045Z,1008.7
2022-11-18T06:53:56.066Z,1008.8
2022-11-18T06:59:17.515Z,1008.7
2022-11-18T07:05:04.371Z,1008.7
2022-11-18T07:10:43.570Z,1008.8
2022-11-18T07:16:01.265Z,1008.9
2022-11-18T07:21:41.051Z,1009
2022-11-18T07:27:06.896Z,1009.1
2022-11-18T07:32:52.912Z,1009.2
2022-11-18T07:38:08.761Z,1009.3
2022-11-18T07:43:51.251Z,1009.3
2022-11-18T07:49:20.842Z,1009.4
2022-11-18T07:55:02.853Z,1009.4
2022-11-18T08:00:31.404Z,1009.5
2022-11-18T08:05:59.175Z,1009.4
2022-11-18T08:11:39.710Z,1009.6
2022-11-18T08:17:20.263Z,1009.7
2022-11-18T08:22:30.683Z,1009.7
2022-11-18T08:28:05.291Z,1009.7
2022-11-18T08:33:47.796Z,1009.8
2022-11-18T08:39:31.708Z,1009.9
2022-11-18T08:44:58.387Z,1010.1
2022-11-18T08:50:24.255Z,1010
2022-11-18T08:55:44.604Z,1010.1
2022-11-18T09:01:32.617Z,1010.2
2022-11-18T09:06:50.105Z,1010.1
2022-11-18T09:12:35.117Z,1010.2
2022-11-18T09:18:18.330Z,1010.1
2022-11-18T09:23:57.407Z,1010
2022-11-18T09:29:14.321Z,1010.2
2022-11-18T09:34:40.433Z,1010.3
2022-11-18T09:40:10.962Z,1010.4
2022-11-18T09:45:46.912Z,1010.4
2022-11-18T09:51:34.132Z,1010.6
2022-11-18T09:56:51.783Z,1010.6
2022-11-18T10:02:43.949Z,1010.6
2022-11-18T10:07:59.115Z,1010.6
2022-11-18T10:13:50.723Z,1010.7
2022-11-18T10:19:10.037Z,1010.6
2022-11-18T10:24:43.635Z,1010.7
2022-11-18T10:30:21.044Z,1010.7
2022-11-18T10:35:51.867Z,1010.6
2022-11-18T10:41:42.009Z,1010.6
2022-11-18T10:47:09.490Z,1010.5
2022-11-18T10:52:32.810Z,1010.6
2022-11-18T10:57:59.955Z,1010.6
2022-11-18T11:03:32.498Z,1010.6
2022-11-18T11:09:20.960Z,1010.6
2022-11-18T11:14:56.309Z,1010.4
2022-11-18T11:20:09.071Z,1010.3
2022-11-18T11:31:39.113Z,1010.2
2022-11-18T11:37:00.383Z,1010.1
2022-11-18T11:42:50.628Z,1010
2022-11-18T11:48:06.661Z,1010.1
2022-11-18T11:53:31.353Z,1010.1
2022-11-18T11:59:12.136Z,1010.3
2022-11-18T12:04:57.505Z,1010.2
2022-11-18T12:10:36.447Z,1010.1
2022-11-18T12:15:45.869Z,1009.9
2022-11-18T12:21:35.127Z,1009.7
2022-11-18T12:26:56.638Z,1009.6
2022-11-18T12:32:29.802Z,1009.5
2022-11-18T12:38:15.759Z,1009.3
2022-11-18T12:43:46.008Z,1009.3
2022-11-18T12:49:28.821Z,1009.3
2022-11-18T12:54:42.806Z,1009.5
2022-11-18T13:00:21.616Z,1009.4
2022-11-18T13:05:48.360Z,1009.4
2022-11-18T13:11:45.919Z,1009.3
2022-11-18T13:17:14.103Z,1009.2
2022-11-18T13:22:32.951Z,1009.2
2022-11-18T13:28:22.087Z,1009.2
2022-11-18T13:33:43.106Z,1009.2
2022-11-18T13:39:20.642Z,1009.1
2022-11-18T13:44:38.595Z,1009.1
2022-11-18T13:50:16.180Z,1009.2
2022-11-18T13:55:56.012Z,1009.1
2022-11-18T14:01:20.326Z,1009.2
2022-11-18T14:07:02.744Z,1009.1
2022-11-18T14:12:37.746Z,1009.2
2022-11-18T14:18:06.214Z,1009.2
2022-11-18T14:23:47.846Z,1009.3
2022-11-18T14:29:28.824Z,1009.3
2022-11-18T14:34:51.589Z,1009.6
2022-11-18T14:40:41.467Z,1009.7
2022-11-18T14:46:04.045Z,1009.8
2022-11-18T14:51:35.133Z,1009.9
2022-11-18T14:57:17.822Z,1009.8
2022-11-18T15:02:45.667Z,1009.8
2022-11-18T15:08:01.184Z,1009.8
2022-11-18T15:13:59.790Z,1009.9
2022-11-18T15:19:09.745Z,1009.9
2022-11-18T15:24:46.276Z,1010
2022-11-18T15:30:12.504Z,1010
2022-11-18T15:35:57.898Z,1010.1
2022-11-18T15:41:24.260Z,1010.3
2022-11-18T15:46:54.359Z,1010.3
2022-11-18T15:52:29.260Z,1010.5
2022-11-18T15:58:12.981Z,1010.5
2022-11-18T16:03:30.948Z,1010.5
2022-11-18T16:09:16.633Z,1010.6
2022-11-18T16:14:51.033Z,1010.7
2022-11-18T16:20:29.709Z,1010.8
2022-11-18T16:25:45.173Z,1011
2022-11-18T16:31:16.772Z,1011
2022-11-18T16:36:55.893Z,1011.1
2022-11-18T16:42:39.823Z,1011.2
2022-11-18T16:48:05.889Z,1011.3
2022-11-18T16:53:35.733Z,1011.3
2022-11-18T16:59:04.356Z,1011.3
2022-11-18T17:04:30.009Z,1011.2
2022-11-18T17:10:08.237Z,1011.2
2022-11-18T17:15:51.922Z,1011.3
2022-11-18T17:21:17.627Z,1011.4
2022-11-18T17:27:00.267Z,1011.6
2022-11-18T17:32:31.773Z,1011.6
2022-11-18T17:38:03.157Z,1011.9
2022-11-18T17:43:38.541Z,1012
2022-11-18T17:48:56.412Z,1011.9
2022-11-18T17:54:38.035Z,1011.8
2022-11-18T18:00:13.493Z,1011.7
2022-11-18T18:05:47.549Z,1011.7
2022-11-18T18:11:24.902Z,1011.6
2022-11-18T18:16:48.156Z,1011.7
2022-11-18T18:22:10.589Z,1011.8
2022-11-18T18:27:44.699Z,1011.8
2022-11-18T18:33:18.002Z,1012.2
2022-11-18T18:39:03.049Z,1012.2
2022-11-18T18:44:31.288Z,1012.2
2022-11-18T18:49:50.184Z,1012.2
2022-11-18T18:55:33.026Z,1012.2
2022-11-18T19:00:55.491Z,1012.3
2022-11-18T19:07:03.182Z,1012.3
2022-11-18T19:12:05.983Z,1012.3
2022-11-18T19:17:29.833Z,1012.4
2022-11-18T19:23:22.391Z,1012.4
2022-11-18T19:28:37.401Z,1012.4
2022-11-18T19:34:22.437Z,1012.3
2022-11-18T19:39:43.549Z,1012.3
2022-11-18T19:45:05.978Z,1012.5
2022-11-18T19:50:51.806Z,1012.6
2022-11-18T19:56:23.510Z,1012.6
2022-11-18T20:01:45.232Z,1012.7
2022-11-18T20:07:39.213Z,1012.8
2022-11-18T20:13:03.829Z,1013
2022-11-18T20:18:37.521Z,1013
2022-11-18T20:24:03.740Z,1012.9
2022-11-18T20:29:37.731Z,1012.9
2022-11-18T20:34:58.143Z,1013
2022-11-18T20:40:39.329Z,1012.9
2022-11-18T20:46:14.645Z,1012.9
2022-11-18T20:51:56.550Z,1012.7
2022-11-18T20:57:15.321Z,1012.7
2022-11-18T21:02:41.258Z,1012.7
2022-11-18T21:08:10.839Z,1012.9
2022-11-18T21:13:48.347Z,1013
2022-11-18T21:19:29.622Z,1013
2022-11-18T21:24:49.463Z,1012.9
2022-11-18T21:30:26.668Z,1012.8
2022-11-18T21:35:51.916Z,1013
2022-11-18T21:41:40.333Z,1013
2022-11-18T21:47:13.632Z,1013.1
2022-11-18T21:52:43.492Z,1013.2
2022-11-18T21:58:19.624Z,1013.1
2022-11-18T22:03:31.307Z,1013.2
2022-11-18T22:09:23.352Z,1013.2
2022-11-18T22:14:39.766Z,1013
2022-11-18T22:20:23.429Z,1013
2022-11-18T22:26:05.331Z,1013
2022-11-18T22:31:24.640Z,1013.1
2022-11-18T22:36:42.835Z,1013
2022-11-18T22:42:34.169Z,1013.2
2022-11-18T22:47:47.743Z,1013.2
2022-11-18T22:53:34.704Z,1013.2
2022-11-18T22:58:57.903Z,1013.3
2022-11-18T23:04:32.764Z,1013.3
2022-11-18T23:10:07.255Z,1013.3
2022-11-18T23:15:42.636Z,1013.3
2022-11-18T23:21:22.849Z,1013.2
2022-11-18T23:26:55.134Z,1013.2
2022-11-18T23:32:11.024Z,1013.3
2022-11-18T23:37:44.687Z,1013.3
2022-11-18T23:43:09.316Z,1013.3
2022-11-18T23:48:53.377Z,1013.3
2022-11-18T23:54:35.964Z,1013.2
2022-11-18T23:59:51.882Z,1013.3
